Time;durP1;ratioP1;P1;durP2;ratioP2;P2;SDS_P1;SDS_P2;PMS_P1;PMS_P2;Temp;Humidity;BMP_temperature;BMP_pressure;BME280_temperature;BME280_humidity;BME280_pressure;Samples;Min_cycle;Max_cycle;Signal;HPM_P1;HPM_P2
2023/03/03 00:00:56;;;;;;;4.63;3.70;;;;;;;;;;5094705;28;20471;-65
2023/03/03 00:03:24;;;;;;;5.63;3.78;;;;;;;;;;5094557;28;20020;-64
2023/03/03 00:05:51;;;;;;;5.25;3.95;;;;;;;;;;5094557;28;20469;-64
2023/03/03 00:08:17;;;;;;;5.05;3.75;;;;;;;;;;5094392;28;20035;-65
2023/03/03 00:10:44;;;;;;;5.53;4.00;;;;;;;;;;5094368;28;20039;-64
2023/03/03 00:13:24;;;;;;;5.20;3.78;;;;;;;;;;5094392;28;20036;-63
2023/03/03 00:15:51;;;;;;;5.90;3.95;;;;;;;;;;5094557;28;20032;-64
2023/03/03 00:18:45;;;;;;;5.75;3.88;;;;;;;;;;5076201;28;20165;-63
2023/03/03 00:21:32;;;;;;;5.38;4.28;;;;;;;;;;5090197;28;20040;-62
2023/03/03 00:24:12;;;;;;;6.53;4.10;;;;;;;;;;5094317;28;20103;-64
2023/03/03 00:26:38;;;;;;;;;;;;;;;;;;5094601;28;20035;-63
2023/03/03 00:29:26;;;;;;;7.00;4.10;;;;;;;;;;5094157;28;19912;-63
2023/03/03 00:31:52;;;;;;;5.45;3.88;;;;;;;;;;5094021;28;20472;-64
2023/03/03 00:34:25;;;;;;;5.78;3.97;;;;;;;;;;5094251;28;20072;-64
2023/03/03 00:36:54;;;;;;;5.40;4.05;;;;;;;;;;5075764;28;20028;-63
2023/03/03 00:39:38;;;;;;;5.23;3.93;;;;;;;;;;5094292;28;20032;-62
2023/03/03 00:42:13;;;;;;;4.75;3.42;;;;;;;;;;5093831;28;20252;-63
2023/03/03 00:44:43;;;;;;;6.20;3.80;;;;;;;;;;5093771;28;20396;-63
2023/03/03 00:47:25;;;;;;;5.00;3.25;;;;;;;;;;5094087;28;20031;-62
2023/03/03 00:49:51;;;;;;;6.15;4.00;;;;;;;;;;5093286;28;20449;-65
2023/03/03 00:52:19;;;;;;;4.45;3.50;;;;;;;;;;5093643;28;20107;-64
2023/03/03 00:54:44;;;;;;;4.72;3.90;;;;;;;;;;5093655;28;20511;-65
2023/03/03 00:57:13;;;;;;;5.90;4.10;;;;;;;;;;5093502;28;20036;-64
2023/03/03 00:59:39;;;;;;;5.20;3.92;;;;;;;;;;5093812;28;20032;-65
2023/03/03 01:02:04;;;;;;;5.50;4.03;;;;;;;;;;5093518;28;20051;-64
2023/03/03 01:04:30;;;;;;;5.47;4.10;;;;;;;;;;5093728;28;20106;-64
2023/03/03 01:06:56;;;;;;;7.88;4.40;;;;;;;;;;5075115;28;20108;-64
2023/03/03 01:09:22;;;;;;;4.78;3.75;;;;;;;;;;5093304;28;20032;-64
2023/03/03 01:11:49;;;;;;;4.50;3.83;;;;;;;;;;5093346;28;20084;-65
2023/03/03 01:14:14;;;;;;;5.72;3.90;;;;;;;;;;5093319;28;20050;-64
2023/03/03 01:16:40;;;;;;;5.43;4.25;;;;;;;;;;5093140;28;20524;-63
2023/03/03 01:19:06;;;;;;;6.03;3.85;;;;;;;;;;5093142;28;20031;-64
2023/03/03 01:21:32;;;;;;;5.05;3.97;;;;;;;;;;5093109;28;20028;-62
2023/03/03 01:23:58;;;;;;;3.92;3.30;;;;;;;;;;5093116;28;20472;-63
2023/03/03 01:26:23;;;;;;;5.88;3.78;;;;;;;;;;5092884;28;20075;-65
2023/03/03 01:28:49;;;;;;;6.20;4.03;;;;;;;;;;5092860;28;20028;-64
2023/03/03 01:31:15;;;;;;;5.05;3.83;;;;;;;;;;5092957;28;20103;-66
2023/03/03 01:33:40;;;;;;;4.82;3.45;;;;;;;;;;5093173;28;20020;-65
2023/03/03 01:36:06;;;;;;;3.97;3.50;;;;;;;;;;5093084;28;20026;-64
2023/03/03 01:38:35;;;;;;;5.07;3.92;;;;;;;;;;5092809;28;20023;-64
2023/03/03 01:41:01;;;;;;;4.88;3.90;;;;;;;;;;5092740;28;20061;-63
2023/03/03 01:43:32;;;;;;;4.93;3.47;;;;;;;;;;5092819;28;20028;-64
2023/03/03 01:45:58;;;;;;;5.28;3.92;;;;;;;;;;5092562;28;20043;-65
2023/03/03 01:48:39;;;;;;;5.38;3.83;;;;;;;;;;5092663;28;20107;-65
2023/03/03 01:51:27;;;;;;;4.88;3.50;;;;;;;;;;5092679;28;20109;-63
2023/03/03 01:54:00;;;;;;;5.15;4.07;;;;;;;;;;5092751;28;20434;-64
2023/03/03 01:56:26;;;;;;;4.53;4.05;;;;;;;;;;5092612;28;20023;-64
2023/03/03 01:59:11;;;;;;;5.00;3.80;;;;;;;;;;5092596;28;20433;-66
2023/03/03 02:01:36;;;;;;;4.53;3.72;;;;;;;;;;5092734;28;20032;-66
2023/03/03 02:04:02;;;;;;;5.18;3.78;;;;;;;;;;5092800;28;20085;-64
2023/03/03 02:06:37;;;;;;;6.18;4.10;;;;;;;;;;5092344;28;20664;-64
2023/03/03 02:09:32;;;;;;;5.00;3.83;;;;;;;;;;5092466;28;20031;-65
2023/03/03 02:12:01;;;;;;;6.20;4.00;;;;;;;;;;5090460;28;20038;-66
2023/03/03 02:14:27;;;;;;;4.78;3.88;;;;;;;;;;5092741;28;20024;-64
2023/03/03 02:16:53;;;;;;;4.90;3.83;;;;;;;;;;5092441;28;20426;-66
2023/03/03 02:19:46;;;;;;;5.28;3.60;;;;;;;;;;5092268;28;20043;-64
2023/03/03 02:22:16;;;;;;;5.35;3.70;;;;;;;;;;5092375;28;20023;-64
2023/03/03 02:24:44;;;;;;;;;;;;;;;;;;5092813;28;20027;-64
2023/03/03 02:27:10;;;;;;;3.90;3.42;;;;;;;;;;5092414;28;19939;-65
2023/03/03 02:29:35;;;;;;;5.03;3.97;;;;;;;;;;5092221;28;20468;-64
2023/03/03 02:32:01;;;;;;;4.82;3.60;;;;;;;;;;5092476;28;20134;-66
2023/03/03 02:34:26;;;;;;;5.13;3.90;;;;;;;;;;5092248;28;20476;-63
2023/03/03 02:36:52;;;;;;;5.47;3.88;;;;;;;;;;5092229;28;20029;-64
2023/03/03 02:39:18;;;;;;;4.63;3.80;;;;;;;;;;5092471;28;20024;-65
2023/03/03 02:42:08;;;;;;;4.63;3.47;;;;;;;;;;5092032;28;20024;-64
2023/03/03 02:44:34;;;;;;;7.65;4.15;;;;;;;;;;5092005;28;20131;-64
2023/03/03 02:47:00;;;;;;;4.35;3.80;;;;;;;;;;5092001;28;20100;-62
2023/03/03 02:49:31;;;;;;;4.40;3.70;;;;;;;;;;5092096;28;20025;-62
2023/03/03 02:51:57;;;;;;;4.90;3.85;;;;;;;;;;5091972;28;20024;-63
2023/03/03 02:54:25;;;;;;;5.90;4.10;;;;;;;;;;5092056;28;20035;-64
2023/03/03 02:56:51;;;;;;;5.72;3.92;;;;;;;;;;5092249;28;20036;-63
2023/03/03 02:59:18;;;;;;;4.50;3.72;;;;;;;;;;5091878;28;20518;-64
2023/03/03 03:01:45;;;;;;;5.07;3.92;;;;;;;;;;5092044;28;20031;-64
2023/03/03 03:04:13;;;;;;;4.70;3.70;;;;;;;;;;5091999;28;20099;-63
2023/03/03 03:06:39;;;;;;;5.97;3.58;;;;;;;;;;5091796;28;20032;-62
2023/03/03 03:09:07;;;;;;;5.13;3.45;;;;;;;;;;5091911;28;20522;-63
2023/03/03 03:11:37;;;;;;;5.30;3.90;;;;;;;;;;5091870;28;20519;-64
2023/03/03 03:14:07;;;;;;;4.50;3.70;;;;;;;;;;5093857;28;20026;-65
2023/03/03 03:16:33;;;;;;;6.28;4.18;;;;;;;;;;5095829;28;20418;-63
2023/03/03 03:18:59;;;;;;;5.57;4.07;;;;;;;;;;5095797;28;20111;-63
2023/03/03 03:21:25;;;;;;;4.22;3.53;;;;;;;;;;5095479;28;20034;-65
2023/03/03 03:23:51;;;;;;;5.47;3.97;;;;;;;;;;5095348;28;20102;-65
2023/03/03 03:26:17;;;;;;;4.68;3.80;;;;;;;;;;5095644;28;20115;-63
2023/03/03 03:28:42;;;;;;;5.53;3.53;;;;;;;;;;5095614;28;20441;-63
2023/03/03 03:31:09;;;;;;;4.43;3.67;;;;;;;;;;5095551;28;20119;-64
2023/03/03 03:33:35;;;;;;;4.53;3.55;;;;;;;;;;5095264;28;20026;-64
2023/03/03 03:36:02;;;;;;;4.60;3.85;;;;;;;;;;5095220;28;20423;-64
2023/03/03 03:38:28;;;;;;;4.43;3.47;;;;;;;;;;5095414;28;20365;-64
2023/03/03 03:40:54;;;;;;;3.70;3.25;;;;;;;;;;5095062;28;20032;-64
2023/03/03 03:43:21;;;;;;;5.28;4.00;;;;;;;;;;5095092;28;20025;-63
2023/03/03 03:45:47;;;;;;;5.72;3.67;;;;;;;;;;5094925;28;20058;-64
2023/03/03 03:48:13;;;;;;;4.80;3.88;;;;;;;;;;5094958;28;20476;-64
2023/03/03 03:50:38;;;;;;;4.60;3.88;;;;;;;;;;5076690;28;20408;-65
2023/03/03 03:53:05;;;;;;;5.05;3.63;;;;;;;;;;5095169;28;20521;-64
2023/03/03 03:55:31;;;;;;;4.32;3.85;;;;;;;;;;5094787;28;20028;-63
2023/03/03 03:57:57;;;;;;;4.88;3.83;;;;;;;;;;5094852;28;20099;-63
2023/03/03 04:00:23;;;;;;;5.53;3.70;;;;;;;;;;5094845;28;20027;-62
2023/03/03 04:02:49;;;;;;;4.43;3.72;;;;;;;;;;5076675;28;20075;-64
2023/03/03 04:05:16;;;;;;;5.85;3.83;;;;;;;;;;5094604;28;20028;-65
2023/03/03 04:07:42;;;;;;;5.07;4.03;;;;;;;;;;5094626;28;20039;-62
2023/03/03 04:10:08;;;;;;;4.97;3.63;;;;;;;;;;5094549;28;20027;-62
2023/03/03 04:12:37;;;;;;;4.28;3.80;;;;;;;;;;5094406;28;20082;-65
2023/03/03 04:15:11;;;;;;;6.05;4.25;;;;;;;;;;5094359;28;20032;-63
2023/03/03 04:17:37;;;;;;;5.47;3.75;;;;;;;;;;5094370;28;20081;-62
2023/03/03 04:20:04;;;;;;;5.22;3.65;;;;;;;;;;5094318;28;20027;-64
2023/03/03 04:22:32;;;;;;;4.63;3.38;;;;;;;;;;5094277;28;20067;-64
2023/03/03 04:25:04;;;;;;;7.20;3.95;;;;;;;;;;5093386;28;20020;-63
2023/03/03 04:27:34;;;;;;;4.20;3.40;;;;;;;;;;5094075;28;20035;-63
2023/03/03 04:30:00;;;;;;;4.75;3.70;;;;;;;;;;5094389;28;20103;-63
2023/03/03 04:32:25;;;;;;;5.28;3.72;;;;;;;;;;5094075;28;20527;-64
2023/03/03 04:34:52;;;;;;;5.78;3.80;;;;;;;;;;5094019;28;20030;-64
2023/03/03 04:37:17;;;;;;;4.70;3.75;;;;;;;;;;5093934;28;20028;-64
2023/03/03 04:39:43;;;;;;;5.22;3.50;;;;;;;;;;5093944;28;20027;-66
2023/03/03 04:42:08;;;;;;;4.20;3.75;;;;;;;;;;5093831;28;20035;-65
2023/03/03 04:44:34;;;;;;;4.60;3.72;;;;;;;;;;5093832;28;20051;-63
2023/03/03 04:46:59;;;;;;;5.30;3.40;;;;;;;;;;5093737;28;20490;-63
2023/03/03 04:49:25;;;;;;;4.40;3.55;;;;;;;;;;5093834;28;20016;-63
2023/03/03 04:51:51;;;;;;;4.72;3.47;;;;;;;;;;5075699;28;20479;-62
2023/03/03 04:54:16;;;;;;;4.60;3.95;;;;;;;;;;5093882;28;20035;-63
2023/03/03 04:56:42;;;;;;;4.28;3.40;;;;;;;;;;5093686;28;20032;-65
2023/03/03 04:59:07;;;;;;;4.43;3.42;;;;;;;;;;5093861;28;20030;-64
2023/03/03 05:01:33;;;;;;;4.57;3.38;;;;;;;;;;5093516;28;20380;-65
2023/03/03 05:03:59;;;;;;;5.57;3.95;;;;;;;;;;5075357;28;20085;-65
2023/03/03 05:06:24;;;;;;;4.03;3.38;;;;;;;;;;5093610;28;20035;-64
2023/03/03 05:08:50;;;;;;;4.20;3.47;;;;;;;;;;5093424;28;20458;-63
2023/03/03 05:11:16;;;;;;;3.95;3.45;;;;;;;;;;5093624;28;20020;-64
2023/03/03 05:13:41;;;;;;;4.53;3.63;;;;;;;;;;5093267;28;20024;-65
2023/03/03 05:16:07;;;;;;;4.80;3.53;;;;;;;;;;5093264;28;20020;-65
2023/03/03 05:18:33;;;;;;;5.72;4.20;;;;;;;;;;5058459;28;20464;-63
2023/03/03 05:20:59;;;;;;;6.03;3.97;;;;;;;;;;5093052;28;20039;-65
2023/03/03 05:23:24;;;;;;;4.57;3.60;;;;;;;;;;5092998;28;20388;-65
2023/03/03 05:25:50;;;;;;;4.38;3.70;;;;;;;;;;5093321;28;20123;-64
2023/03/03 05:28:17;;;;;;;5.18;3.95;;;;;;;;;;5092913;28;20468;-66
2023/03/03 05:30:42;;;;;;;4.75;3.90;;;;;;;;;;5093194;28;20035;-65
2023/03/03 05:33:12;;;;;;;4.30;3.83;;;;;;;;;;5092804;28;20392;-64
2023/03/03 05:35:37;;;;;;;4.33;3.50;;;;;;;;;;5092600;28;20023;-64
2023/03/03 05:38:03;;;;;;;5.47;3.50;;;;;;;;;;5092694;28;20016;-64
2023/03/03 05:40:28;;;;;;;5.65;3.70;;;;;;;;;;5092758;28;20035;-65
2023/03/03 05:42:54;;;;;;;4.18;3.75;;;;;;;;;;5092726;28;20035;-65
2023/03/03 05:45:20;;;;;;;5.38;3.78;;;;;;;;;;5092598;28;20047;-64
2023/03/03 05:47:51;;;;;;;4.90;3.42;;;;;;;;;;5092564;28;20124;-65
2023/03/03 05:50:21;;;;;;;4.85;3.78;;;;;;;;;;5092650;28;20039;-65
2023/03/03 05:52:48;;;;;;;3.85;3.42;;;;;;;;;;5092596;28;20031;-65
2023/03/03 05:55:13;;;;;;;5.05;3.70;;;;;;;;;;5092639;28;20024;-64
2023/03/03 05:57:39;;;;;;;5.53;4.13;;;;;;;;;;5092508;28;20081;-64
2023/03/03 06:00:06;;;;;;;4.85;3.95;;;;;;;;;;5092442;28;20074;-64
2023/03/03 06:02:32;;;;;;;4.75;3.97;;;;;;;;;;5092401;28;20468;-64
2023/03/03 06:04:58;;;;;;;5.85;3.97;;;;;;;;;;5092664;28;20077;-64
2023/03/03 06:07:23;;;;;;;7.07;4.22;;;;;;;;;;5092397;28;20028;-63
2023/03/03 06:09:49;;;;;;;5.00;3.60;;;;;;;;;;5092354;28;20028;-66
2023/03/03 06:12:14;;;;;;;4.35;3.60;;;;;;;;;;5092530;28;20031;-65
2023/03/03 06:14:40;;;;;;;4.38;3.70;;;;;;;;;;5092571;28;20477;-64
2023/03/03 06:17:06;;;;;;;5.60;4.18;;;;;;;;;;5074176;28;20495;-64
2023/03/03 06:19:31;;;;;;;5.45;3.80;;;;;;;;;;5092198;28;20436;-64
2023/03/03 06:21:57;;;;;;;4.95;3.83;;;;;;;;;;5092201;28;20055;-65
2023/03/03 06:24:25;;;;;;;5.88;4.13;;;;;;;;;;5092304;28;20028;-65
2023/03/03 06:26:51;;;;;;;4.47;3.97;;;;;;;;;;5092119;28;20464;-65
2023/03/03 06:29:16;;;;;;;5.40;4.18;;;;;;;;;;5092229;28;20069;-63
2023/03/03 06:31:43;;;;;;;6.10;4.35;;;;;;;;;;5092300;28;20066;-64
2023/03/03 06:34:09;;;;;;;4.32;3.50;;;;;;;;;;5092193;28;20028;-64
2023/03/03 06:36:34;;;;;;;5.07;4.10;;;;;;;;;;5092434;28;20032;-63
2023/03/03 06:39:00;;;;;;;4.50;3.58;;;;;;;;;;5092116;28;20468;-66
2023/03/03 06:41:25;;;;;;;5.30;3.90;;;;;;;;;;5092242;28;20062;-65
2023/03/03 06:43:51;;;;;;;4.88;3.90;;;;;;;;;;5092052;28;20078;-63
2023/03/03 06:46:17;;;;;;;4.78;3.95;;;;;;;;;;5091865;28;20097;-63
2023/03/03 06:48:42;;;;;;;5.57;4.00;;;;;;;;;;5093204;28;20047;-64
2023/03/03 06:51:46;;;;;;;4.47;3.53;;;;;;;;;;5095441;28;20035;-63
2023/03/03 06:54:15;;;;;;;4.55;3.80;;;;;;;;;;4994047;28;20026;-64
2023/03/03 06:56:42;;;;;;;5.45;3.78;;;;;;;;;;4993979;28;20072;-62
2023/03/03 06:59:16;;;;;;;5.32;4.05;;;;;;;;;;5043888;28;20438;-63
2023/03/03 07:01:43;;;;;;;5.50;3.85;;;;;;;;;;5095957;28;20028;-63
2023/03/03 07:04:18;;;;;;;4.78;3.90;;;;;;;;;;5076789;28;20085;-62
2023/03/03 07:06:45;;;;;;;5.78;4.13;;;;;;;;;;5093771;28;20020;-63
2023/03/03 07:09:26;;;;;;;4.85;4.00;;;;;;;;;;5089536;28;20020;-63
2023/03/03 07:11:59;;;;;;;5.82;4.15;;;;;;;;;;5090963;28;20043;-64
2023/03/03 07:14:24;;;;;;;5.20;4.38;;;;;;;;;;5090081;28;20066;-65
2023/03/03 07:17:01;;;;;;;4.30;3.90;;;;;;;;;;5094322;28;20056;-62
2023/03/03 07:19:32;;;;;;;5.28;4.30;;;;;;;;;;5093481;28;20031;-63
2023/03/03 07:22:05;;;;;;;4.82;3.97;;;;;;;;;;5078315;28;20035;-64
2023/03/03 07:24:32;;;;;;;5.20;4.00;;;;;;;;;;5068018;28;20417;-65
2023/03/03 07:27:23;;;;;;;4.78;4.07;;;;;;;;;;5093964;28;20187;-64
2023/03/03 07:29:52;;;;;;;4.68;3.63;;;;;;;;;;5081312;28;20071;-62
2023/03/03 07:32:32;;;;;;;4.15;3.65;;;;;;;;;;5092159;28;20020;-65
2023/03/03 07:34:58;;;;;;;4.57;3.92;;;;;;;;;;5093451;28;20061;-64
2023/03/03 07:37:37;;;;;;;5.25;4.10;;;;;;;;;;5093591;28;20419;-65
2023/03/03 07:40:20;;;;;;;4.05;3.47;;;;;;;;;;5093638;28;20036;-65
2023/03/03 07:42:48;;;;;;;5.50;3.80;;;;;;;;;;5094236;28;20020;-65
2023/03/03 07:45:34;;;;;;;4.38;3.83;;;;;;;;;;5073363;28;20047;-64
2023/03/03 07:48:23;;;;;;;5.60;3.97;;;;;;;;;;5072703;28;20033;-62
2023/03/03 07:50:48;;;;;;;4.75;3.90;;;;;;;;;;5069099;28;20048;-63
2023/03/03 07:53:25;;;;;;;5.10;3.95;;;;;;;;;;5071672;28;20064;-64
2023/03/03 07:55:50;;;;;;;5.95;4.28;;;;;;;;;;5073242;28;20070;-64
2023/03/03 07:58:26;;;;;;;5.43;3.85;;;;;;;;;;5073298;28;20536;-64
2023/03/03 08:01:22;;;;;;;5.68;4.13;;;;;;;;;;5072842;28;20028;-64
2023/03/03 08:03:50;;;;;;;4.93;3.75;;;;;;;;;;5073074;28;20268;-64
2023/03/03 08:06:34;;;;;;;6.07;4.65;;;;;;;;;;5072725;28;20377;-65
2023/03/03 08:09:08;;;;;;;5.47;4.82;;;;;;;;;;5073109;28;20033;-64
2023/03/03 08:11:34;;;;;;;5.45;4.60;;;;;;;;;;5071250;28;20120;-63
2023/03/03 08:14:00;;;;;;;4.25;3.85;;;;;;;;;;5072713;28;20127;-64
2023/03/03 08:16:44;;;;;;;5.35;4.07;;;;;;;;;;5071622;28;20052;-63
2023/03/03 08:19:10;;;;;;;5.43;4.25;;;;;;;;;;5072779;28;20024;-64
2023/03/03 08:21:36;;;;;;;4.25;3.70;;;;;;;;;;5072640;28;20020;-65
2023/03/03 08:24:02;;;;;;;5.53;4.43;;;;;;;;;;5072404;28;20385;-64
2023/03/03 08:26:28;;;;;;;4.40;4.00;;;;;;;;;;5070878;28;20078;-63
2023/03/03 08:28:54;;;;;;;5.38;4.38;;;;;;;;;;5071205;28;20431;-63
2023/03/03 08:31:20;;;;;;;4.25;3.78;;;;;;;;;;5072561;28;20036;-62
2023/03/03 08:33:46;;;;;;;7.78;3.88;;;;;;;;;;5072233;28;20028;-64
2023/03/03 08:36:12;;;;;;;7.70;4.63;;;;;;;;;;5072446;28;20043;-64
2023/03/03 08:38:38;;;;;;;5.80;4.35;;;;;;;;;;5072402;28;20477;-64
2023/03/03 08:41:04;;;;;;;8.07;4.53;;;;;;;;;;5069192;28;20535;-65
2023/03/03 08:43:30;;;;;;;6.45;4.57;;;;;;;;;;5067112;28;20035;-65
2023/03/03 08:45:59;;;;;;;6.72;4.75;;;;;;;;;;5082771;28;20040;-64
2023/03/03 08:48:26;;;;;;;5.68;4.60;;;;;;;;;;5082266;28;20032;-63
2023/03/03 08:50:52;;;;;;;6.18;4.57;;;;;;;;;;5083038;28;20032;-64
2023/03/03 08:53:18;;;;;;;6.28;4.53;;;;;;;;;;5083705;28;20024;-64
2023/03/03 08:55:45;;;;;;;6.00;4.28;;;;;;;;;;5076332;28;20445;-62
2023/03/03 08:58:11;;;;;;;5.57;4.53;;;;;;;;;;5083625;28;20028;-63
2023/03/03 09:00:37;;;;;;;5.75;4.38;;;;;;;;;;5077113;28;20526;-62
2023/03/03 09:03:05;;;;;;;7.15;4.45;;;;;;;;;;5085695;28;20024;-62
2023/03/03 09:05:32;;;;;;;6.22;4.85;;;;;;;;;;5088705;28;20027;-63
2023/03/03 09:07:58;;;;;;;5.10;4.20;;;;;;;;;;5091604;28;20150;-63
2023/03/03 09:10:29;;;;;;;7.13;3.85;;;;;;;;;;5090230;28;20122;-63
2023/03/03 09:12:57;;;;;;;5.25;4.43;;;;;;;;;;5089915;28;20020;-63
2023/03/03 09:15:24;;;;;;;7.60;4.45;;;;;;;;;;5088633;28;20089;-62
2023/03/03 09:17:50;;;;;;;6.55;4.50;;;;;;;;;;5089336;28;20031;-63
2023/03/03 09:20:34;;;;;;;5.60;3.92;;;;;;;;;;5090693;28;20024;-63
2023/03/03 09:23:38;;;;;;;6.05;3.90;;;;;;;;;;5091440;28;20020;-63
2023/03/03 09:26:30;;;;;;;6.32;4.55;;;;;;;;;;5091592;28;20020;-63
2023/03/03 09:28:59;;;;;;;5.30;4.40;;;;;;;;;;5091288;28;20027;-64
2023/03/03 09:31:57;;;;;;;4.82;3.75;;;;;;;;;;5091461;28;20020;-64
2023/03/03 09:34:36;;;;;;;9.02;4.57;;;;;;;;;;5090026;28;20024;-63
2023/03/03 09:37:17;;;;;;;6.20;4.63;;;;;;;;;;5091505;28;20060;-63
2023/03/03 09:39:45;;;;;;;5.55;4.30;;;;;;;;;;5091055;28;20035;-63
2023/03/03 09:42:19;;;;;;;5.03;4.30;;;;;;;;;;5091253;28;20081;-63
2023/03/03 09:45:10;;;;;;;6.50;4.15;;;;;;;;;;5088099;28;20039;-64
2023/03/03 09:47:48;;;;;;;9.43;4.30;;;;;;;;;;5078054;28;20036;-64
2023/03/03 09:50:33;;;;;;;5.00;4.07;;;;;;;;;;5084744;28;21548;-64
2023/03/03 09:53:04;;;;;;;5.85;4.70;;;;;;;;;;5071167;28;20449;-65
2023/03/03 09:55:43;;;;;;;7.13;4.50;;;;;;;;;;5070700;28;20029;-64
2023/03/03 09:58:29;;;;;;;7.72;4.40;;;;;;;;;;5069982;28;20131;-63
2023/03/03 10:00:55;;;;;;;8.05;4.82;;;;;;;;;;5069991;28;20024;-64
2023/03/03 10:03:47;;;;;;;7.03;5.10;;;;;;;;;;5069948;28;20496;-64
2023/03/03 10:06:58;;;;;;;10.45;4.75;;;;;;;;;;5073606;28;20032;-62
2023/03/03 10:09:32;;;;;;;;;;;;;;;;;;5058610;28;20032;-63
2023/03/03 10:12:18;;;;;;;8.15;4.93;;;;;;;;;;5057177;28;20295;-62
2023/03/03 10:14:50;;;;;;;8.80;4.70;;;;;;;;;;5051241;28;20074;-62
2023/03/03 10:17:48;;;;;;;6.47;4.80;;;;;;;;;;5070789;28;20070;-63
2023/03/03 10:21:00;;;;;;;5.90;4.75;;;;;;;;;;5070628;28;20032;-62
2023/03/03 10:23:45;;;;;;;6.38;4.30;;;;;;;;;;5071888;28;20036;-63
2023/03/03 10:26:20;;;;;;;5.75;4.43;;;;;;;;;;5074664;28;20040;-63
2023/03/03 10:29:26;;;;;;;6.55;3.95;;;;;;;;;;5074551;28;20032;-63
2023/03/03 10:32:05;;;;;;;6.18;4.68;;;;;;;;;;5073968;28;20040;-63
2023/03/03 10:34:30;;;;;;;6.47;4.65;;;;;;;;;;5074533;28;20111;-62
2023/03/03 10:37:23;;;;;;;6.00;4.47;;;;;;;;;;5074645;28;20108;-63
2023/03/03 10:40:16;;;;;;;6.28;5.05;;;;;;;;;;5073935;28;20234;-63
2023/03/03 10:43:03;;;;;;;5.88;4.32;;;;;;;;;;5074355;28;20036;-63
2023/03/03 10:45:43;;;;;;;5.20;4.25;;;;;;;;;;5073885;28;20123;-64
2023/03/03 10:48:22;;;;;;;7.20;4.80;;;;;;;;;;5074063;28;20036;-63
2023/03/03 10:51:09;;;;;;;6.05;4.65;;;;;;;;;;5074105;28;20036;-63
2023/03/03 10:53:41;;;;;;;4.82;4.25;;;;;;;;;;5090535;28;20136;-62
2023/03/03 10:56:44;;;;;;;7.20;4.65;;;;;;;;;;5094333;28;20028;-62
2023/03/03 10:59:35;;;;;;;7.10;4.45;;;;;;;;;;5076367;28;20387;-63
2023/03/03 11:02:14;;;;;;;5.57;4.50;;;;;;;;;;5094449;28;20036;-63
2023/03/03 11:04:55;;;;;;;5.53;4.73;;;;;;;;;;5094335;28;20686;-63
2023/03/03 11:07:47;;;;;;;5.40;4.47;;;;;;;;;;5094016;28;20063;-63
2023/03/03 11:10:37;;;;;;;6.57;4.78;;;;;;;;;;5094163;28;20028;-63
2023/03/03 11:13:23;;;;;;;5.80;4.53;;;;;;;;;;5094084;28;20020;-63
2023/03/03 11:16:13;;;;;;;7.97;5.10;;;;;;;;;;5075137;28;20036;-63
2023/03/03 11:19:02;;;;;;;6.18;4.57;;;;;;;;;;5086136;28;20421;-62
2023/03/03 11:21:28;;;;;;;5.47;4.13;;;;;;;;;;5093963;28;20150;-62
2023/03/03 11:24:14;;;;;;;6.18;4.43;;;;;;;;;;5093775;28;20118;-62
2023/03/03 11:27:07;;;;;;;5.65;4.50;;;;;;;;;;5093779;28;20036;-62
2023/03/03 11:30:10;;;;;;;5.30;4.40;;;;;;;;;;5075280;28;20118;-63
2023/03/03 11:32:45;;;;;;;4.85;4.18;;;;;;;;;;5093940;28;20035;-64
2023/03/03 11:36:04;;;;;;;4.93;4.40;;;;;;;;;;5093445;28;20024;-64
2023/03/03 11:38:50;;;;;;;6.15;4.30;;;;;;;;;;5074137;28;20110;-64
2023/03/03 11:41:51;;;;;;;4.85;4.35;;;;;;;;;;5093627;28;20060;-63
2023/03/03 11:44:29;;;;;;;6.43;4.60;;;;;;;;;;5093126;28;20024;-63
2023/03/03 11:47:00;;;;;;;5.20;4.28;;;;;;;;;;5093363;28;20077;-63
2023/03/03 11:49:32;;;;;;;6.45;3.83;;;;;;;;;;5093338;28;20043;-62
2023/03/03 11:52:45;;;;;;;5.85;4.63;;;;;;;;;;5093286;28;20036;-62
2023/03/03 11:55:24;;;;;;;4.85;4.25;;;;;;;;;;5086302;28;20088;-63
2023/03/03 11:57:59;;;;;;;6.95;4.32;;;;;;;;;;5093432;28;20035;-63
2023/03/03 12:00:51;;;;;;;6.13;4.22;;;;;;;;;;5093149;28;20081;-64
2023/03/03 12:03:26;;;;;;;5.32;4.40;;;;;;;;;;5093191;28;20024;-63
2023/03/03 12:06:06;;;;;;;5.20;4.07;;;;;;;;;;5075174;28;20671;-64
2023/03/03 12:08:53;;;;;;;6.03;4.55;;;;;;;;;;5093045;28;20071;-64
2023/03/03 12:11:53;;;;;;;5.20;4.70;;;;;;;;;;5092804;28;20020;-61
2023/03/03 12:14:43;;;;;;;6.07;4.25;;;;;;;;;;5048835;28;20063;-64
2023/03/03 12:17:35;;;;;;;5.30;4.40;;;;;;;;;;5092699;28;20070;-63
2023/03/03 12:20:24;;;;;;;5.07;4.25;;;;;;;;;;5090688;28;20031;-65
2023/03/03 12:23:23;;;;;;;6.18;4.95;;;;;;;;;;5092412;28;20040;-63
2023/03/03 12:26:14;;;;;;;5.72;4.40;;;;;;;;;;5092643;28;20111;-63
2023/03/03 12:29:01;;;;;;;6.00;4.70;;;;;;;;;;5079084;28;20035;-63
2023/03/03 12:31:36;;;;;;;5.82;4.60;;;;;;;;;;5074575;28;20039;-62
2023/03/03 12:34:26;;;;;;;6.50;4.72;;;;;;;;;;5092629;28;20032;-63
2023/03/03 12:36:58;;;;;;;7.68;4.72;;;;;;;;;;5092495;28;20028;-62
2023/03/03 12:39:49;;;;;;;6.60;4.90;;;;;;;;;;5092576;28;20059;-60
2023/03/03 12:42:32;;;;;;;6.65;5.10;;;;;;;;;;5072379;28;20029;-61
2023/03/03 12:45:07;;;;;;;6.07;5.07;;;;;;;;;;5071891;28;20055;-62
2023/03/03 12:48:07;;;;;;;5.65;4.53;;;;;;;;;;5071134;28;20028;-61
2023/03/03 12:50:45;;;;;;;5.40;4.15;;;;;;;;;;5072305;28;20424;-62
2023/03/03 12:53:23;;;;;;;5.72;4.90;;;;;;;;;;5072083;28;20047;-63
2023/03/03 12:56:11;;;;;;;9.85;5.07;;;;;;;;;;5053761;28;20448;-65
2023/03/03 12:58:51;;;;;;;6.40;4.80;;;;;;;;;;5075260;28;20043;-61
2023/03/03 13:01:30;;;;;;;7.20;4.80;;;;;;;;;;5072155;28;20035;-64
2023/03/03 13:04:04;;;;;;;6.25;4.95;;;;;;;;;;5073605;28;20032;-64
2023/03/03 13:06:38;;;;;;;6.28;4.82;;;;;;;;;;5091914;28;20043;-62
2023/03/03 13:09:16;;;;;;;5.50;4.75;;;;;;;;;;5091811;28;20028;-64
2023/03/03 13:12:01;;;;;;;7.72;5.10;;;;;;;;;;5091827;28;20020;-62
2023/03/03 13:14:38;;;;;;;7.50;5.13;;;;;;;;;;5091954;28;20076;-62
2023/03/03 13:17:22;;;;;;;7.20;5.22;;;;;;;;;;5085983;28;20074;-63
2023/03/03 13:19:59;;;;;;;6.90;4.90;;;;;;;;;;5089517;28;20618;-64
2023/03/03 13:22:28;;;;;;;6.75;4.90;;;;;;;;;;5091590;28;20024;-64
2023/03/03 13:25:08;;;;;;;7.20;4.88;;;;;;;;;;5091463;28;20070;-60
2023/03/03 13:27:40;;;;;;;8.98;5.20;;;;;;;;;;5091422;28;20048;-61
2023/03/03 13:30:14;;;;;;;9.45;5.30;;;;;;;;;;5091480;28;20028;-63
2023/03/03 13:32:58;;;;;;;8.73;5.60;;;;;;;;;;5091354;28;20024;-60
2023/03/03 13:35:45;;;;;;;7.38;5.20;;;;;;;;;;5091745;28;20396;-64
2023/03/03 13:38:18;;;;;;;8.00;5.40;;;;;;;;;;5091196;28;20046;-61
2023/03/03 13:40:49;;;;;;;7.53;5.15;;;;;;;;;;5091617;28;20432;-63
2023/03/03 13:43:25;;;;;;;7.38;5.30;;;;;;;;;;5091338;28;20016;-65
2023/03/03 13:46:00;;;;;;;7.88;5.32;;;;;;;;;;5090539;28;20048;-60
2023/03/03 13:48:46;;;;;;;8.73;4.90;;;;;;;;;;5091357;28;20105;-61
2023/03/03 13:51:41;;;;;;;7.40;5.03;;;;;;;;;;5091118;28;20089;-62
2023/03/03 13:54:37;;;;;;;10.10;5.20;;;;;;;;;;5091172;28;20111;-61
2023/03/03 13:57:19;;;;;;;7.88;5.43;;;;;;;;;;5052545;28;20028;-64
2023/03/03 13:59:44;;;;;;;9.00;5.07;;;;;;;;;;5089062;28;20028;-61
2023/03/03 14:02:14;;;;;;;10.10;6.00;;;;;;;;;;5087749;28;20028;-64
2023/03/03 14:05:17;;;;;;;13.70;6.18;;;;;;;;;;5070821;28;20039;-64
2023/03/03 14:08:01;;;;;;;16.15;6.00;;;;;;;;;;5031959;28;20063;-61
2023/03/03 14:10:52;;;;;;;24.13;7.00;;;;;;;;;;5070939;28;20108;-62
2023/03/03 14:13:30;;;;;;;46.45;7.45;;;;;;;;;;5070740;28;20028;-63
2023/03/03 14:16:08;;;;;;;27.02;7.25;;;;;;;;;;5070787;28;20035;-60
2023/03/03 14:18:52;;;;;;;33.22;6.05;;;;;;;;;;5070744;28;20040;-60
2023/03/03 14:21:29;;;;;;;34.03;7.75;;;;;;;;;;5070505;28;20035;-60
2023/03/03 14:24:00;;;;;;;35.75;6.88;;;;;;;;;;5070588;28;20020;-60
2023/03/03 14:26:26;;;;;;;32.88;6.78;;;;;;;;;;5070399;28;20024;-63
2023/03/03 14:29:19;;;;;;;38.28;7.00;;;;;;;;;;5070403;28;20111;-61
2023/03/03 14:31:44;;;;;;;41.65;6.90;;;;;;;;;;5070497;28;20033;-62
2023/03/03 14:34:10;;;;;;;42.83;8.23;;;;;;;;;;5070491;28;20400;-63
2023/03/03 14:36:39;;;;;;;33.97;7.07;;;;;;;;;;5075440;28;20517;-63
2023/03/03 14:39:32;;;;;;;36.08;7.25;;;;;;;;;;5070471;28;20044;-60
2023/03/03 14:41:58;;;;;;;34.67;12.23;;;;;;;;;;5090434;28;20081;-62
2023/03/03 14:44:35;;;;;;;38.90;12.13;;;;;;;;;;5090814;28;20414;-62
2023/03/03 14:47:04;;;;;;;37.42;12.18;;;;;;;;;;5090597;28;20131;-62
2023/03/03 14:49:33;;;;;;;28.38;11.75;;;;;;;;;;5089186;28;20028;-61
2023/03/03 14:52:19;;;;;;;28.40;11.30;;;;;;;;;;5081855;28;20048;-63
2023/03/03 14:54:59;;;;;;;26.58;11.27;;;;;;;;;;5070539;28;20124;-62
2023/03/03 14:57:34;;;;;;;27.58;11.45;;;;;;;;;;5070305;28;20102;-63
2023/03/03 15:00:22;;;;;;;31.15;11.65;;;;;;;;;;5086301;28;20035;-61
2023/03/03 15:03:15;;;;;;;27.00;11.43;;;;;;;;;;5075926;28;20178;-62
2023/03/03 15:05:51;;;;;;;21.23;10.93;;;;;;;;;;5090423;28;20085;-63
2023/03/03 15:08:33;;;;;;;23.88;9.93;;;;;;;;;;5090493;28;20032;-63
2023/03/03 15:11:25;;;;;;;24.58;8.98;;;;;;;;;;5090598;28;20030;-61
2023/03/03 15:13:51;;;;;;;19.80;9.30;;;;;;;;;;5093951;28;20070;-62
2023/03/03 15:16:22;;;;;;;21.10;9.43;;;;;;;;;;5093971;28;20488;-63
2023/03/03 15:19:00;;;;;;;21.05;8.95;;;;;;;;;;5075764;28;20028;-63
2023/03/03 15:21:31;;;;;;;25.33;8.90;;;;;;;;;;5093962;28;20469;-62
2023/03/03 15:24:23;;;;;;;20.90;8.10;;;;;;;;;;5093994;28;20074;-63